sensor_id;sensor_type;location;lat;lon;timestamp;P1;durP1;ratioP1;P2;durP2;ratioP2
57029;SDS011;42920;45.306;20.448;2022-09-09T00:00:38;15.43;;;8.68;;
57029;SDS011;42920;45.306;20.448;2022-09-09T00:03:12;11.65;;;7.95;;
57029;SDS011;42920;45.306;20.448;2022-09-09T00:06:03;14.30;;;7.95;;
57029;SDS011;42920;45.306;20.448;2022-09-09T00:11:43;19.63;;;10.00;;
57029;SDS011;42920;45.306;20.448;2022-09-09T00:17:12;12.57;;;7.25;;
57029;SDS011;42920;45.306;20.448;2022-09-09T00:19:58;15.88;;;8.30;;
57029;SDS011;42920;45.306;20.448;2022-09-09T00:22:40;13.15;;;8.00;;
57029;SDS011;42920;45.306;20.448;2022-09-09T00:25:37;12.63;;;8.13;;
57029;SDS011;42920;45.306;20.448;2022-09-09T00:28:18;13.05;;;8.07;;
57029;SDS011;42920;45.306;20.448;2022-09-09T00:33:17;12.45;;;7.43;;
57029;SDS011;42920;45.306;20.448;2022-09-09T00:35:48;14.40;;;8.55;;
57029;SDS011;42920;45.306;20.448;2022-09-09T00:38:24;11.43;;;7.97;;
57029;SDS011;42920;45.306;20.448;2022-09-09T00:41:01;16.23;;;8.18;;
57029;SDS011;42920;45.306;20.448;2022-09-09T00:43:53;14.82;;;8.43;;
57029;SDS011;42920;45.306;20.448;2022-09-09T00:54:48;16.33;;;9.10;;
57029;SDS011;42920;45.306;20.448;2022-09-09T00:57:36;13.35;;;9.60;;
57029;SDS011;42920;45.306;20.448;2022-09-09T01:00:17;15.70;;;8.23;;
57029;SDS011;42920;45.306;20.448;2022-09-09T01:11:26;11.35;;;9.00;;
57029;SDS011;42920;45.306;20.448;2022-09-09T01:17:04;11.77;;;8.60;;
57029;SDS011;42920;45.306;20.448;2022-09-09T01:27:38;18.75;;;10.38;;
57029;SDS011;42920;45.306;20.448;2022-09-09T01:30:08;17.50;;;10.70;;
57029;SDS011;42920;45.306;20.448;2022-09-09T01:32:41;15.43;;;10.55;;
57029;SDS011;42920;45.306;20.448;2022-09-09T01:35:15;22.88;;;10.93;;
57029;SDS011;42920;45.306;20.448;2022-09-09T01:37:48;15.85;;;10.27;;
57029;SDS011;42920;45.306;20.448;2022-09-09T01:40:14;14.43;;;10.45;;
57029;SDS011;42920;45.306;20.448;2022-09-09T01:42:40;17.38;;;10.50;;
57029;SDS011;42920;45.306;20.448;2022-09-09T01:45:06;16.20;;;10.52;;
57029;SDS011;42920;45.306;20.448;2022-09-09T01:47:32;18.52;;;11.30;;
57029;SDS011;42920;45.306;20.448;2022-09-09T01:49:58;17.45;;;10.43;;
57029;SDS011;42920;45.306;20.448;2022-09-09T01:52:26;20.67;;;10.45;;
57029;SDS011;42920;45.306;20.448;2022-09-09T01:54:52;25.17;;;10.80;;
57029;SDS011;42920;45.306;20.448;2022-09-09T01:57:27;18.98;;;10.10;;
57029;SDS011;42920;45.306;20.448;2022-09-09T02:00:11;13.02;;;9.90;;
57029;SDS011;42920;45.306;20.448;2022-09-09T02:08:11;25.38;;;10.63;;
57029;SDS011;42920;45.306;20.448;2022-09-09T02:13:38;17.73;;;9.02;;
57029;SDS011;42920;45.306;20.448;2022-09-09T02:18:42;18.40;;;9.38;;
57029;SDS011;42920;45.306;20.448;2022-09-09T02:21:31;17.05;;;9.30;;
57029;SDS011;42920;45.306;20.448;2022-09-09T02:24:00;11.40;;;8.45;;
57029;SDS011;42920;45.306;20.448;2022-09-09T02:26:29;27.77;;;8.65;;
57029;SDS011;42920;45.306;20.448;2022-09-09T02:28:58;19.83;;;8.93;;
57029;SDS011;42920;45.306;20.448;2022-09-09T02:31:28;24.08;;;9.25;;
57029;SDS011;42920;45.306;20.448;2022-09-09T02:33:55;15.32;;;7.68;;
57029;SDS011;42920;45.306;20.448;2022-09-09T02:36:27;17.20;;;9.25;;
57029;SDS011;42920;45.306;20.448;2022-09-09T02:38:58;12.15;;;8.63;;
57029;SDS011;42920;45.306;20.448;2022-09-09T02:41:32;18.52;;;9.35;;
57029;SDS011;42920;45.306;20.448;2022-09-09T02:44:00;14.90;;;8.95;;
57029;SDS011;42920;45.306;20.448;2022-09-09T02:52:08;20.08;;;9.10;;
57029;SDS011;42920;45.306;20.448;2022-09-09T02:54:41;18.60;;;9.60;;
57029;SDS011;42920;45.306;20.448;2022-09-09T02:57:16;17.90;;;8.98;;
57029;SDS011;42920;45.306;20.448;2022-09-09T02:59:46;26.40;;;9.50;;
57029;SDS011;42920;45.306;20.448;2022-09-09T03:02:12;15.63;;;10.20;;
57029;SDS011;42920;45.306;20.448;2022-09-09T03:04:38;17.02;;;10.02;;
57029;SDS011;42920;45.306;20.448;2022-09-09T03:07:05;16.35;;;8.57;;
57029;SDS011;42920;45.306;20.448;2022-09-09T03:09:30;15.77;;;10.50;;
57029;SDS011;42920;45.306;20.448;2022-09-09T03:11:57;18.83;;;10.05;;
57029;SDS011;42920;45.306;20.448;2022-09-09T03:14:24;18.08;;;10.35;;
57029;SDS011;42920;45.306;20.448;2022-09-09T03:16:53;18.27;;;10.15;;
57029;SDS011;42920;45.306;20.448;2022-09-09T03:19:19;15.85;;;9.77;;
57029;SDS011;42920;45.306;20.448;2022-09-09T03:21:46;16.20;;;10.45;;
57029;SDS011;42920;45.306;20.448;2022-09-09T03:24:13;15.70;;;10.50;;
57029;SDS011;42920;45.306;20.448;2022-09-09T03:26:39;19.45;;;10.82;;
57029;SDS011;42920;45.306;20.448;2022-09-09T03:29:06;21.88;;;10.95;;
57029;SDS011;42920;45.306;20.448;2022-09-09T03:31:33;17.63;;;11.18;;
57029;SDS011;42920;45.306;20.448;2022-09-09T03:33:59;13.38;;;9.82;;
57029;SDS011;42920;45.306;20.448;2022-09-09T03:36:25;15.27;;;11.20;;
57029;SDS011;42920;45.306;20.448;2022-09-09T03:38:52;16.10;;;10.57;;
57029;SDS011;42920;45.306;20.448;2022-09-09T03:41:19;22.52;;;10.98;;
57029;SDS011;42920;45.306;20.448;2022-09-09T03:43:52;19.83;;;11.98;;
57029;SDS011;42920;45.306;20.448;2022-09-09T03:46:19;20.08;;;13.18;;
57029;SDS011;42920;45.306;20.448;2022-09-09T03:48:46;16.33;;;11.40;;
57029;SDS011;42920;45.306;20.448;2022-09-09T03:51:12;22.88;;;12.13;;
57029;SDS011;42920;45.306;20.448;2022-09-09T03:53:38;19.20;;;10.82;;
57029;SDS011;42920;45.306;20.448;2022-09-09T03:56:04;18.33;;;12.15;;
57029;SDS011;42920;45.306;20.448;2022-09-09T03:58:32;18.33;;;12.13;;
57029;SDS011;42920;45.306;20.448;2022-09-09T04:01:03;16.15;;;11.55;;
57029;SDS011;42920;45.306;20.448;2022-09-09T04:03:29;15.55;;;10.90;;
57029;SDS011;42920;45.306;20.448;2022-09-09T04:05:56;16.60;;;11.35;;
57029;SDS011;42920;45.306;20.448;2022-09-09T04:08:24;20.83;;;11.18;;
57029;SDS011;42920;45.306;20.448;2022-09-09T04:10:53;16.23;;;12.45;;
57029;SDS011;42920;45.306;20.448;2022-09-09T04:13:23;13.80;;;10.45;;
57029;SDS011;42920;45.306;20.448;2022-09-09T04:15:50;15.60;;;11.07;;
57029;SDS011;42920;45.306;20.448;2022-09-09T04:18:17;14.10;;;10.35;;
57029;SDS011;42920;45.306;20.448;2022-09-09T04:20:46;19.23;;;10.73;;
57029;SDS011;42920;45.306;20.448;2022-09-09T04:23:12;19.05;;;10.90;;
57029;SDS011;42920;45.306;20.448;2022-09-09T04:25:43;19.17;;;11.45;;
57029;SDS011;42920;45.306;20.448;2022-09-09T04:28:10;19.15;;;10.02;;
57029;SDS011;42920;45.306;20.448;2022-09-09T04:30:35;20.10;;;9.93;;
57029;SDS011;42920;45.306;20.448;2022-09-09T04:33:01;18.73;;;9.48;;
57029;SDS011;42920;45.306;20.448;2022-09-09T04:35:27;15.75;;;9.38;;
57029;SDS011;42920;45.306;20.448;2022-09-09T04:37:52;14.23;;;8.90;;
57029;SDS011;42920;45.306;20.448;2022-09-09T04:40:18;16.95;;;9.32;;
57029;SDS011;42920;45.306;20.448;2022-09-09T04:42:44;16.45;;;9.20;;
57029;SDS011;42920;45.306;20.448;2022-09-09T04:45:09;15.18;;;9.95;;
57029;SDS011;42920;45.306;20.448;2022-09-09T04:47:36;15.50;;;9.85;;
57029;SDS011;42920;45.306;20.448;2022-09-09T04:50:02;18.77;;;11.10;;
57029;SDS011;42920;45.306;20.448;2022-09-09T04:52:28;20.20;;;9.98;;
57029;SDS011;42920;45.306;20.448;2022-09-09T04:54:53;16.83;;;10.40;;
57029;SDS011;42920;45.306;20.448;2022-09-09T04:57:19;14.80;;;9.43;;
57029;SDS011;42920;45.306;20.448;2022-09-09T04:59:45;16.92;;;10.00;;
57029;SDS011;42920;45.306;20.448;2022-09-09T05:02:11;13.43;;;9.30;;
57029;SDS011;42920;45.306;20.448;2022-09-09T05:04:37;12.90;;;9.27;;
57029;SDS011;42920;45.306;20.448;2022-09-09T05:07:02;19.80;;;9.68;;
57029;SDS011;42920;45.306;20.448;2022-09-09T05:09:28;16.02;;;9.45;;
57029;SDS011;42920;45.306;20.448;2022-09-09T05:11:55;14.55;;;8.88;;
57029;SDS011;42920;45.306;20.448;2022-09-09T05:14:21;17.08;;;9.32;;
57029;SDS011;42920;45.306;20.448;2022-09-09T05:16:47;19.02;;;8.73;;
57029;SDS011;42920;45.306;20.448;2022-09-09T05:19:14;19.10;;;9.65;;
57029;SDS011;42920;45.306;20.448;2022-09-09T05:21:40;13.43;;;8.30;;
57029;SDS011;42920;45.306;20.448;2022-09-09T05:24:06;22.52;;;8.43;;
57029;SDS011;42920;45.306;20.448;2022-09-09T05:26:32;14.90;;;8.68;;
57029;SDS011;42920;45.306;20.448;2022-09-09T05:28:58;15.93;;;9.40;;
57029;SDS011;42920;45.306;20.448;2022-09-09T05:31:25;13.75;;;9.15;;
57029;SDS011;42920;45.306;20.448;2022-09-09T05:33:52;12.88;;;8.40;;
57029;SDS011;42920;45.306;20.448;2022-09-09T05:36:19;16.83;;;8.77;;
57029;SDS011;42920;45.306;20.448;2022-09-09T05:38:46;14.98;;;8.48;;
57029;SDS011;42920;45.306;20.448;2022-09-09T05:41:13;15.73;;;8.50;;
57029;SDS011;42920;45.306;20.448;2022-09-09T05:43:40;13.43;;;8.40;;
57029;SDS011;42920;45.306;20.448;2022-09-09T05:48:43;19.27;;;9.27;;
57029;SDS011;42920;45.306;20.448;2022-09-09T05:51:17;14.05;;;8.85;;
57029;SDS011;42920;45.306;20.448;2022-09-09T05:53:47;12.15;;;8.07;;
57029;SDS011;42920;45.306;20.448;2022-09-09T05:56:17;15.85;;;8.63;;
57029;SDS011;42920;45.306;20.448;2022-09-09T05:58:44;15.57;;;8.68;;
57029;SDS011;42920;45.306;20.448;2022-09-09T06:01:21;17.48;;;9.27;;
57029;SDS011;42920;45.306;20.448;2022-09-09T06:03:49;12.68;;;8.20;;
57029;SDS011;42920;45.306;20.448;2022-09-09T06:06:17;13.15;;;8.57;;
57029;SDS011;42920;45.306;20.448;2022-09-09T06:08:47;14.82;;;9.60;;
57029;SDS011;42920;45.306;20.448;2022-09-09T06:11:20;17.83;;;9.05;;
57029;SDS011;42920;45.306;20.448;2022-09-09T06:13:47;16.73;;;7.72;;
57029;SDS011;42920;45.306;20.448;2022-09-09T06:16:17;12.75;;;8.60;;
57029;SDS011;42920;45.306;20.448;2022-09-09T06:18:44;17.02;;;9.38;;
57029;SDS011;42920;45.306;20.448;2022-09-09T06:23:43;16.73;;;8.85;;
57029;SDS011;42920;45.306;20.448;2022-09-09T06:26:19;16.20;;;9.45;;
57029;SDS011;42920;45.306;20.448;2022-09-09T06:28:48;20.35;;;9.70;;
57029;SDS011;42920;45.306;20.448;2022-09-09T06:31:16;13.30;;;8.80;;
57029;SDS011;42920;45.306;20.448;2022-09-09T06:33:46;15.20;;;9.38;;
57029;SDS011;42920;45.306;20.448;2022-09-09T06:36:15;14.00;;;8.23;;
57029;SDS011;42920;45.306;20.448;2022-09-09T06:38:43;13.82;;;9.05;;
57029;SDS011;42920;45.306;20.448;2022-09-09T06:41:10;14.70;;;9.13;;
57029;SDS011;42920;45.306;20.448;2022-09-09T06:43:37;15.63;;;8.98;;
57029;SDS011;42920;45.306;20.448;2022-09-09T06:46:05;23.23;;;8.35;;
57029;SDS011;42920;45.306;20.448;2022-09-09T06:48:41;15.23;;;8.85;;
57029;SDS011;42920;45.306;20.448;2022-09-09T06:51:10;13.25;;;8.82;;
57029;SDS011;42920;45.306;20.448;2022-09-09T06:53:38;15.55;;;8.50;;
57029;SDS011;42920;45.306;20.448;2022-09-09T06:58:37;15.07;;;8.90;;
57029;SDS011;42920;45.306;20.448;2022-09-09T07:01:08;15.52;;;8.65;;
57029;SDS011;42920;45.306;20.448;2022-09-09T07:03:34;13.45;;;8.30;;
57029;SDS011;42920;45.306;20.448;2022-09-09T07:06:00;22.52;;;9.15;;
57029;SDS011;42920;45.306;20.448;2022-09-09T07:08:27;13.07;;;8.65;;
57029;SDS011;42920;45.306;20.448;2022-09-09T07:10:53;17.30;;;8.73;;
57029;SDS011;42920;45.306;20.448;2022-09-09T07:13:28;15.57;;;8.18;;
57029;SDS011;42920;45.306;20.448;2022-09-09T07:15:53;13.48;;;8.30;;
57029;SDS011;42920;45.306;20.448;2022-09-09T07:18:19;16.20;;;8.13;;
57029;SDS011;42920;45.306;20.448;2022-09-09T07:20:55;14.55;;;8.32;;
57029;SDS011;42920;45.306;20.448;2022-09-09T07:23:22;14.38;;;9.52;;
57029;SDS011;42920;45.306;20.448;2022-09-09T07:25:48;16.67;;;9.77;;
57029;SDS011;42920;45.306;20.448;2022-09-09T07:28:15;16.90;;;9.43;;
57029;SDS011;42920;45.306;20.448;2022-09-09T07:30:41;15.75;;;9.77;;
57029;SDS011;42920;45.306;20.448;2022-09-09T07:33:07;14.63;;;8.68;;
57029;SDS011;42920;45.306;20.448;2022-09-09T07:35:34;12.27;;;8.55;;
57029;SDS011;42920;45.306;20.448;2022-09-09T07:38:02;18.75;;;9.00;;
57029;SDS011;42920;45.306;20.448;2022-09-09T07:40:31;16.65;;;9.88;;
57029;SDS011;42920;45.306;20.448;2022-09-09T07:42:58;13.80;;;9.15;;
57029;SDS011;42920;45.306;20.448;2022-09-09T07:45:24;14.88;;;9.65;;
57029;SDS011;42920;45.306;20.448;2022-09-09T07:47:53;14.27;;;10.43;;
57029;SDS011;42920;45.306;20.448;2022-09-09T07:50:20;11.93;;;8.80;;
57029;SDS011;42920;45.306;20.448;2022-09-09T07:52:46;12.55;;;8.80;;
57029;SDS011;42920;45.306;20.448;2022-09-09T07:55:11;13.52;;;9.45;;
57029;SDS011;42920;45.306;20.448;2022-09-09T07:57:37;14.18;;;9.57;;
57029;SDS011;42920;45.306;20.448;2022-09-09T08:00:03;12.73;;;9.18;;
57029;SDS011;42920;45.306;20.448;2022-09-09T08:02:30;14.52;;;8.75;;
57029;SDS011;42920;45.306;20.448;2022-09-09T08:04:55;17.52;;;8.35;;
57029;SDS011;42920;45.306;20.448;2022-09-09T08:07:21;14.93;;;8.95;;
57029;SDS011;42920;45.306;20.448;2022-09-09T08:09:48;18.17;;;8.15;;
57029;SDS011;42920;45.306;20.448;2022-09-09T08:12:14;12.35;;;8.60;;
57029;SDS011;42920;45.306;20.448;2022-09-09T08:14:41;11.57;;;7.55;;
57029;SDS011;42920;45.306;20.448;2022-09-09T08:17:07;14.25;;;8.40;;
57029;SDS011;42920;45.306;20.448;2022-09-09T08:19:33;12.27;;;8.27;;
57029;SDS011;42920;45.306;20.448;2022-09-09T08:22:01;12.05;;;8.00;;
57029;SDS011;42920;45.306;20.448;2022-09-09T08:24:28;15.75;;;8.40;;
57029;SDS011;42920;45.306;20.448;2022-09-09T08:26:54;13.77;;;7.93;;
57029;SDS011;42920;45.306;20.448;2022-09-09T08:29:21;11.32;;;7.15;;
57029;SDS011;42920;45.306;20.448;2022-09-09T08:31:50;11.63;;;8.15;;
57029;SDS011;42920;45.306;20.448;2022-09-09T08:34:19;20.38;;;7.78;;
57029;SDS011;42920;45.306;20.448;2022-09-09T08:36:47;11.10;;;7.10;;
57029;SDS011;42920;45.306;20.448;2022-09-09T08:39:14;12.88;;;7.93;;
57029;SDS011;42920;45.306;20.448;2022-09-09T08:42:03;9.48;;;7.45;;
57029;SDS011;42920;45.306;20.448;2022-09-09T08:50:43;10.82;;;6.55;;
57029;SDS011;42920;45.306;20.448;2022-09-09T08:53:16;14.38;;;7.25;;
57029;SDS011;42920;45.306;20.448;2022-09-09T08:55:50;13.48;;;8.07;;
57029;SDS011;42920;45.306;20.448;2022-09-09T08:58:30;10.70;;;7.47;;
57029;SDS011;42920;45.306;20.448;2022-09-09T09:06:31;12.23;;;7.40;;
57029;SDS011;42920;45.306;20.448;2022-09-09T09:09:22;11.88;;;6.82;;
57029;SDS011;42920;45.306;20.448;2022-09-09T09:11:51;12.60;;;7.45;;
57029;SDS011;42920;45.306;20.448;2022-09-09T09:14:23;11.32;;;8.43;;
57029;SDS011;42920;45.306;20.448;2022-09-09T09:17:02;14.48;;;7.68;;
57029;SDS011;42920;45.306;20.448;2022-09-09T09:19:32;12.38;;;7.75;;
57029;SDS011;42920;45.306;20.448;2022-09-09T09:30:20;17.42;;;9.20;;
57029;SDS011;42920;45.306;20.448;2022-09-09T09:32:52;18.00;;;8.63;;
57029;SDS011;42920;45.306;20.448;2022-09-09T09:35:22;11.68;;;8.48;;
57029;SDS011;42920;45.306;20.448;2022-09-09T09:37:49;9.45;;;7.43;;
57029;SDS011;42920;45.306;20.448;2022-09-09T09:40:18;11.95;;;8.88;;
57029;SDS011;42920;45.306;20.448;2022-09-09T09:42:52;13.38;;;8.50;;
57029;SDS011;42920;45.306;20.448;2022-09-09T09:48:01;15.60;;;9.88;;
57029;SDS011;42920;45.306;20.448;2022-09-09T09:50:29;13.97;;;10.80;;
57029;SDS011;42920;45.306;20.448;2022-09-09T09:53:00;20.60;;;11.02;;
57029;SDS011;42920;45.306;20.448;2022-09-09T09:55:30;16.67;;;11.82;;
57029;SDS011;42920;45.306;20.448;2022-09-09T09:58:02;14.50;;;11.05;;
57029;SDS011;42920;45.306;20.448;2022-09-09T10:00:32;16.15;;;11.75;;
57029;SDS011;42920;45.306;20.448;2022-09-09T10:03:00;15.93;;;10.75;;
57029;SDS011;42920;45.306;20.448;2022-09-09T10:05:27;15.45;;;11.38;;
57029;SDS011;42920;45.306;20.448;2022-09-09T10:08:15;13.43;;;10.13;;
57029;SDS011;42920;45.306;20.448;2022-09-09T10:35:34;16.77;;;10.00;;
57029;SDS011;42920;45.306;20.448;2022-09-09T10:56:56;12.00;;;8.27;;
57029;SDS011;42920;45.306;20.448;2022-09-09T10:59:29;14.32;;;9.00;;
57029;SDS011;42920;45.306;20.448;2022-09-09T11:04:41;14.25;;;7.65;;
57029;SDS011;42920;45.306;20.448;2022-09-09T11:07:13;11.98;;;7.72;;
57029;SDS011;42920;45.306;20.448;2022-09-09T11:09:54;11.68;;;6.75;;
57029;SDS011;42920;45.306;20.448;2022-09-09T11:12:26;10.10;;;6.82;;
57029;SDS011;42920;45.306;20.448;2022-09-09T11:15:06;11.98;;;7.13;;
57029;SDS011;42920;45.306;20.448;2022-09-09T11:20:12;15.07;;;7.40;;
57029;SDS011;42920;45.306;20.448;2022-09-09T11:22:53;9.85;;;7.47;;
57029;SDS011;42920;45.306;20.448;2022-09-09T11:25:46;9.77;;;6.78;;
57029;SDS011;42920;45.306;20.448;2022-09-09T11:28:23;10.73;;;7.25;;
57029;SDS011;42920;45.306;20.448;2022-09-09T11:30:56;10.13;;;6.40;;
57029;SDS011;42920;45.306;20.448;2022-09-09T11:33:46;9.82;;;6.85;;
57029;SDS011;42920;45.306;20.448;2022-09-09T11:42:05;10.60;;;5.95;;
57029;SDS011;42920;45.306;20.448;2022-09-09T11:44:43;14.15;;;7.05;;
57029;SDS011;42920;45.306;20.448;2022-09-09T11:47:22;9.45;;;6.20;;
57029;SDS011;42920;45.306;20.448;2022-09-09T11:52:44;13.15;;;7.30;;
57029;SDS011;42920;45.306;20.448;2022-09-09T11:58:01;11.00;;;7.05;;
57029;SDS011;42920;45.306;20.448;2022-09-09T12:00:42;12.35;;;7.35;;
57029;SDS011;42920;45.306;20.448;2022-09-09T12:05:56;10.88;;;7.45;;
57029;SDS011;42920;45.306;20.448;2022-09-09T12:08:27;12.30;;;7.18;;
57029;SDS011;42920;45.306;20.448;2022-09-09T12:10:58;8.65;;;6.85;;
57029;SDS011;42920;45.306;20.448;2022-09-09T12:13:28;14.90;;;7.60;;
57029;SDS011;42920;45.306;20.448;2022-09-09T12:15:56;11.18;;;6.85;;
57029;SDS011;42920;45.306;20.448;2022-09-09T12:18:23;10.88;;;6.72;;
57029;SDS011;42920;45.306;20.448;2022-09-09T12:20:52;11.45;;;6.72;;
57029;SDS011;42920;45.306;20.448;2022-09-09T12:23:52;14.50;;;7.20;;
57029;SDS011;42920;45.306;20.448;2022-09-09T12:29:04;11.70;;;6.68;;
57029;SDS011;42920;45.306;20.448;2022-09-09T12:34:18;10.75;;;7.35;;
57029;SDS011;42920;45.306;20.448;2022-09-09T12:36:59;16.90;;;8.15;;
57029;SDS011;42920;45.306;20.448;2022-09-09T12:39:38;12.60;;;7.28;;
57029;SDS011;42920;45.306;20.448;2022-09-09T12:42:19;12.37;;;7.80;;
57029;SDS011;42920;45.306;20.448;2022-09-09T12:47:19;11.93;;;7.18;;
57029;SDS011;42920;45.306;20.448;2022-09-09T12:49:48;17.10;;;7.68;;
57029;SDS011;42920;45.306;20.448;2022-09-09T12:52:31;10.73;;;7.78;;
57029;SDS011;42920;45.306;20.448;2022-09-09T12:55:01;11.27;;;7.43;;
57029;SDS011;42920;45.306;20.448;2022-09-09T12:57:33;10.52;;;7.28;;
57029;SDS011;42920;45.306;20.448;2022-09-09T13:00:06;12.95;;;7.85;;
57029;SDS011;42920;45.306;20.448;2022-09-09T13:02:50;16.48;;;6.88;;
57029;SDS011;42920;45.306;20.448;2022-09-09T13:05:24;9.80;;;7.50;;
57029;SDS011;42920;45.306;20.448;2022-09-09T13:07:52;10.52;;;7.40;;
57029;SDS011;42920;45.306;20.448;2022-09-09T13:10:27;10.88;;;6.28;;
57029;SDS011;42920;45.306;20.448;2022-09-09T13:12:55;9.68;;;6.18;;
57029;SDS011;42920;45.306;20.448;2022-09-09T13:15:23;9.98;;;6.53;;
57029;SDS011;42920;45.306;20.448;2022-09-09T13:17:56;11.98;;;6.43;;
57029;SDS011;42920;45.306;20.448;2022-09-09T13:20:25;9.18;;;6.18;;
57029;SDS011;42920;45.306;20.448;2022-09-09T13:22:53;9.48;;;6.82;;
57029;SDS011;42920;45.306;20.448;2022-09-09T13:25:27;8.85;;;5.97;;
57029;SDS011;42920;45.306;20.448;2022-09-09T13:28:03;14.55;;;6.93;;
57029;SDS011;42920;45.306;20.448;2022-09-09T13:30:34;11.55;;;7.15;;
57029;SDS011;42920;45.306;20.448;2022-09-09T13:35:48;12.57;;;6.05;;
57029;SDS011;42920;45.306;20.448;2022-09-09T13:38:35;18.95;;;6.63;;
57029;SDS011;42920;45.306;20.448;2022-09-09T13:41:04;13.80;;;6.25;;
57029;SDS011;42920;45.306;20.448;2022-09-09T13:43:45;13.02;;;6.38;;
57029;SDS011;42920;45.306;20.448;2022-09-09T13:46:25;9.57;;;5.68;;
57029;SDS011;42920;45.306;20.448;2022-09-09T13:51:39;11.93;;;6.10;;
57029;SDS011;42920;45.306;20.448;2022-09-09T13:54:11;8.93;;;6.32;;
57029;SDS011;42920;45.306;20.448;2022-09-09T13:56:38;12.40;;;5.90;;
57029;SDS011;42920;45.306;20.448;2022-09-09T13:59:05;10.90;;;5.65;;
57029;SDS011;42920;45.306;20.448;2022-09-09T14:01:35;9.57;;;6.22;;
57029;SDS011;42920;45.306;20.448;2022-09-09T14:04:02;12.20;;;5.90;;
57029;SDS011;42920;45.306;20.448;2022-09-09T14:06:29;10.60;;;6.43;;
57029;SDS011;42920;45.306;20.448;2022-09-09T14:08:55;15.40;;;6.93;;
57029;SDS011;42920;45.306;20.448;2022-09-09T14:11:21;10.68;;;5.28;;
57029;SDS011;42920;45.306;20.448;2022-09-09T14:13:47;11.50;;;5.80;;
57029;SDS011;42920;45.306;20.448;2022-09-09T14:16:15;15.77;;;5.57;;
57029;SDS011;42920;45.306;20.448;2022-09-09T14:18:42;13.57;;;6.15;;
57029;SDS011;42920;45.306;20.448;2022-09-09T14:21:09;10.18;;;4.95;;
57029;SDS011;42920;45.306;20.448;2022-09-09T14:23:36;15.00;;;6.05;;
57029;SDS011;42920;45.306;20.448;2022-09-09T14:26:03;15.63;;;6.38;;
57029;SDS011;42920;45.306;20.448;2022-09-09T14:28:30;10.75;;;5.90;;
57029;SDS011;42920;45.306;20.448;2022-09-09T14:30:58;8.75;;;5.45;;
57029;SDS011;42920;45.306;20.448;2022-09-09T14:33:25;15.02;;;5.88;;
57029;SDS011;42920;45.306;20.448;2022-09-09T14:35:57;9.95;;;5.85;;
57029;SDS011;42920;45.306;20.448;2022-09-09T14:38:24;11.45;;;5.32;;
57029;SDS011;42920;45.306;20.448;2022-09-09T14:40:50;9.63;;;5.50;;
57029;SDS011;42920;45.306;20.448;2022-09-09T14:43:16;8.68;;;5.55;;
57029;SDS011;42920;45.306;20.448;2022-09-09T14:45:42;11.93;;;5.35;;
57029;SDS011;42920;45.306;20.448;2022-09-09T14:48:08;15.75;;;6.50;;
57029;SDS011;42920;45.306;20.448;2022-09-09T14:50:34;11.77;;;5.82;;
57029;SDS011;42920;45.306;20.448;2022-09-09T14:53:01;10.63;;;6.07;;
57029;SDS011;42920;45.306;20.448;2022-09-09T14:55:27;10.60;;;6.18;;
57029;SDS011;42920;45.306;20.448;2022-09-09T14:57:54;12.38;;;5.60;;
57029;SDS011;42920;45.306;20.448;2022-09-09T15:00:20;17.17;;;7.00;;
57029;SDS011;42920;45.306;20.448;2022-09-09T15:02:45;14.35;;;6.75;;
57029;SDS011;42920;45.306;20.448;2022-09-09T15:05:11;10.30;;;6.22;;
57029;SDS011;42920;45.306;20.448;2022-09-09T15:07:37;9.52;;;5.50;;
57029;SDS011;42920;45.306;20.448;2022-09-09T15:10:03;15.43;;;5.90;;
57029;SDS011;42920;45.306;20.448;2022-09-09T15:12:29;12.65;;;5.32;;
57029;SDS011;42920;45.306;20.448;2022-09-09T15:14:55;17.65;;;5.60;;
57029;SDS011;42920;45.306;20.448;2022-09-09T15:17:21;11.65;;;5.90;;
57029;SDS011;42920;45.306;20.448;2022-09-09T15:19:47;13.38;;;6.90;;
57029;SDS011;42920;45.306;20.448;2022-09-09T15:22:15;10.15;;;7.47;;
57029;SDS011;42920;45.306;20.448;2022-09-09T15:24:40;14.27;;;6.75;;
57029;SDS011;42920;45.306;20.448;2022-09-09T15:27:06;9.82;;;6.20;;
57029;SDS011;42920;45.306;20.448;2022-09-09T15:29:32;9.23;;;6.40;;
57029;SDS011;42920;45.306;20.448;2022-09-09T15:31:57;11.90;;;6.57;;
57029;SDS011;42920;45.306;20.448;2022-09-09T15:34:23;11.77;;;6.03;;
57029;SDS011;42920;45.306;20.448;2022-09-09T15:36:50;16.77;;;7.00;;
57029;SDS011;42920;45.306;20.448;2022-09-09T15:39:17;12.30;;;6.60;;
57029;SDS011;42920;45.306;20.448;2022-09-09T15:41:43;12.52;;;8.15;;
57029;SDS011;42920;45.306;20.448;2022-09-09T15:44:10;12.90;;;8.63;;
57029;SDS011;42920;45.306;20.448;2022-09-09T15:46:48;17.38;;;9.20;;
57029;SDS011;42920;45.306;20.448;2022-09-09T15:49:16;12.05;;;8.48;;
57029;SDS011;42920;45.306;20.448;2022-09-09T15:51:47;16.08;;;9.27;;
57029;SDS011;42920;45.306;20.448;2022-09-09T15:54:21;16.02;;;8.38;;
57029;SDS011;42920;45.306;20.448;2022-09-09T15:56:52;21.42;;;8.75;;
57029;SDS011;42920;45.306;20.448;2022-09-09T15:59:21;17.77;;;9.00;;
57029;SDS011;42920;45.306;20.448;2022-09-09T16:01:47;18.27;;;8.68;;
57029;SDS011;42920;45.306;20.448;2022-09-09T16:04:16;18.42;;;10.40;;
57029;SDS011;42920;45.306;20.448;2022-09-09T16:06:51;15.80;;;9.48;;
57029;SDS011;42920;45.306;20.448;2022-09-09T16:09:18;17.35;;;9.38;;
57029;SDS011;42920;45.306;20.448;2022-09-09T16:11:45;14.60;;;8.65;;
57029;SDS011;42920;45.306;20.448;2022-09-09T16:14:12;19.40;;;9.68;;
57029;SDS011;42920;45.306;20.448;2022-09-09T16:16:38;27.50;;;10.13;;
57029;SDS011;42920;45.306;20.448;2022-09-09T16:19:05;14.27;;;9.65;;
57029;SDS011;42920;45.306;20.448;2022-09-09T16:21:37;15.52;;;9.55;;
57029;SDS011;42920;45.306;20.448;2022-09-09T16:24:06;17.15;;;8.75;;
57029;SDS011;42920;45.306;20.448;2022-09-09T16:26:34;17.75;;;9.00;;
57029;SDS011;42920;45.306;20.448;2022-09-09T16:29:01;21.63;;;8.90;;
57029;SDS011;42920;45.306;20.448;2022-09-09T16:31:28;18.38;;;8.18;;
57029;SDS011;42920;45.306;20.448;2022-09-09T16:33:54;19.08;;;8.20;;
57029;SDS011;42920;45.306;20.448;2022-09-09T16:36:24;15.13;;;8.07;;
57029;SDS011;42920;45.306;20.448;2022-09-09T16:38:52;16.95;;;9.00;;
57029;SDS011;42920;45.306;20.448;2022-09-09T16:41:20;17.40;;;9.25;;
57029;SDS011;42920;45.306;20.448;2022-09-09T16:43:47;16.27;;;9.00;;
57029;SDS011;42920;45.306;20.448;2022-09-09T16:48:42;17.23;;;8.10;;
57029;SDS011;42920;45.306;20.448;2022-09-09T16:51:12;16.77;;;9.25;;
57029;SDS011;42920;45.306;20.448;2022-09-09T16:53:39;15.05;;;8.27;;
57029;SDS011;42920;45.306;20.448;2022-09-09T16:56:09;19.25;;;8.88;;
57029;SDS011;42920;45.306;20.448;2022-09-09T16:58:36;13.98;;;8.65;;
57029;SDS011;42920;45.306;20.448;2022-09-09T17:01:03;18.65;;;9.52;;
57029;SDS011;42920;45.306;20.448;2022-09-09T17:03:30;12.98;;;8.98;;
57029;SDS011;42920;45.306;20.448;2022-09-09T17:05:57;12.13;;;8.75;;
57029;SDS011;42920;45.306;20.448;2022-09-09T17:08:26;17.70;;;8.30;;
57029;SDS011;42920;45.306;20.448;2022-09-09T17:10:56;16.40;;;8.90;;
57029;SDS011;42920;45.306;20.448;2022-09-09T17:13:23;14.70;;;7.88;;
57029;SDS011;42920;45.306;20.448;2022-09-09T17:15:50;16.38;;;8.70;;
57029;SDS011;42920;45.306;20.448;2022-09-09T17:18:16;15.57;;;7.90;;